»·PEaware :: N72C 8W5-KYKM

N72C :: 8W5-KYKM

FLIGHT INFORMATION

Flight Status: Arrived
Operator: Privately registered:
United States
More flights under this callsign
Pilot: Charles C. (26995)
Aircraft: SOCATA TBM-900
(TBM9)
More flights by this aircraft type
Origin: 8W5 Apex Airpark
United States
Destination: KYKM Yakima Air Term/Mcallister
United States
More flights between these airports :: More routes between these airports
Route:
File this flight plan on PilotEdge
Remarks:
Altitude:
(Current/Filed)
17,500ft
Speed:
(Current/Filed)
290kts
Departed: 27-Sep-20 01:10 PM
Arrived: 27-Sep-20 01:52 PM
Distance/Time
Traveled:
111nm/0:41
Distance/Time
To Go:
Arrived

Flight Plot

Page will automatically refresh every two minutes.

Flight plan parsing failed; only flown route is shown


Map Options




Map Legend


Flown Route
Filed Route
Departure Airport
Arrival Airport
Navaid (VOR, NDB)
Fix

Horizontal Profiles

Position Reports

Time Latitude Longitude Heading Altitude Ground
Speed
27-Sep-20 13:04 47.655919 -122.732926 320 516ft 0kts
27-Sep-20 13:05 47.655919 -122.732926 320 516ft 0kts
27-Sep-20 13:06 47.655920 -122.732927 324 516ft 0kts
27-Sep-20 13:07 47.657847 -122.732661 11 531ft 22kts
27-Sep-20 13:08 47.659904 -122.732470 187 524ft 0kts
27-Sep-20 13:09 47.641678 -122.734034 161 1258ft 116kts
27-Sep-20 13:10 47.620750 -122.767798 249 2876ft 137kts
27-Sep-20 13:11 47.621758 -122.819077 339 4388ft 143kts
27-Sep-20 13:12 47.632701 -122.780746 122 5771ft 161kts
27-Sep-20 13:13 47.606910 -122.718568 121 6880ft 176kts
27-Sep-20 13:14 47.580537 -122.655258 121 9050ft 182kts
27-Sep-20 13:15 47.553902 -122.591531 121 11481ft 182kts
27-Sep-20 13:16 47.526450 -122.525969 121 12994ft 191kts
27-Sep-20 13:17 47.497943 -122.458063 121 14532ft 201kts
27-Sep-20 13:18 47.468582 -122.388326 121 16642ft 202kts
27-Sep-20 13:19 47.436776 -122.312969 122 17541ft 245kts
27-Sep-20 13:20 47.394895 -122.224641 125 17523ft 273kts
27-Sep-20 13:21 47.350411 -122.131559 125 17519ft 281kts
27-Sep-20 13:22 47.304832 -122.036520 125 17516ft 284kts
27-Sep-20 13:23 47.258874 -121.941022 125 17513ft 285kts
27-Sep-20 13:24 47.212713 -121.845433 125 17512ft 285kts
27-Sep-20 13:25 47.166169 -121.749381 125 17514ft 285kts
27-Sep-20 13:26 47.119982 -121.654398 125 17514ft 285kts
27-Sep-20 13:27 47.073889 -121.559928 125 17511ft 285kts
27-Sep-20 13:28 47.027515 -121.465206 125 17501ft 285kts
27-Sep-20 13:29 46.981101 -121.370734 125 17497ft 285kts
27-Sep-20 13:30 46.934734 -121.276679 125 17494ft 285kts
27-Sep-20 13:31 46.884994 -121.186750 143 17485ft 284kts
27-Sep-20 13:32 46.843807 -121.099058 125 17449ft 236kts
27-Sep-20 13:33 46.805207 -121.020391 125 14575ft 274kts
27-Sep-20 13:34 46.754414 -120.945256 176 11059ft 263kts
27-Sep-20 13:36 46.684576 -120.958728 181 8387ft 235kts
27-Sep-20 13:37 46.621654 -120.962096 181 8389ft 222kts
27-Sep-20 13:38 46.559971 -120.965435 181 8408ft 221kts
27-Sep-20 13:39 46.498526 -120.968755 181 8406ft 217kts
27-Sep-20 13:40 46.440756 -120.971868 181 8399ft 194kts
27-Sep-20 13:41 46.387623 -120.974426 174 8199ft 195kts
27-Sep-20 13:42 46.390373 -120.918562 42 7297ft 190kts
27-Sep-20 13:43 46.420522 -120.860734 32 6695ft 165kts
27-Sep-20 13:44 46.462150 -120.822922 32 5917ft 184kts
27-Sep-20 13:45 46.505647 -120.783208 32 4990ft 183kts
27-Sep-20 13:46 46.547149 -120.745231 33 4375ft 170kts
27-Sep-20 13:47 46.582737 -120.711822 42 3480ft 128kts
27-Sep-20 13:48 46.595442 -120.680075 78 3527ft 88kts
27-Sep-20 13:49 46.593314 -120.645691 108 3247ft 86kts
27-Sep-20 13:50 46.585668 -120.612189 107 2099ft 88kts
27-Sep-20 13:51 46.577586 -120.578637 112 1392ft 85kts
27-Sep-20 13:52 46.570340 -120.550723 105 1085ft 33kts
27-Sep-20 13:52 46.570142 -120.545178 108 1076ft 21kts
27-Sep-20 13:54 46.569879 -120.540566 102 1069ft 0kts
27-Sep-20 13:55 46.569879 -120.540566 102 1069ft 0kts
27-Sep-20 13:55 46.569879 -120.540566 102 1069ft 0kts
27-Sep-20 13:56 46.569879 -120.540566 102 1069ft 0kts
27-Sep-20 13:58 46.569879 -120.540566 102 1069ft 0kts
27-Sep-20 13:58 46.569879 -120.540566 102 1069ft 0kts

Navigation Log

Ident Type
Flight plan parsing failed, navigation log unavailable